sensor_id;sensor_type;location;lat;lon;timestamp;temperature;humidity
7942;HTU21D;4016;50.758;7.150;2022-11-18T00:00:13;8.53;118.99
7942;HTU21D;4016;50.758;7.150;2022-11-18T00:05:13;8.52;118.99
7942;HTU21D;4016;50.758;7.150;2022-11-18T00:10:14;8.48;118.99
7942;HTU21D;4016;50.758;7.150;2022-11-18T00:15:15;8.45;118.99
7942;HTU21D;4016;50.758;7.150;2022-11-18T00:20:15;8.46;118.99
7942;HTU21D;4016;50.758;7.150;2022-11-18T00:25:16;8.51;118.99
7942;HTU21D;4016;50.758;7.150;2022-11-18T00:30:16;8.64;118.99
7942;HTU21D;4016;50.758;7.150;2022-11-18T00:35:17;8.60;118.99
7942;HTU21D;4016;50.758;7.150;2022-11-18T00:40:17;8.58;118.99
7942;HTU21D;4016;50.758;7.150;2022-11-18T00:45:19;8.56;118.99
7942;HTU21D;4016;50.758;7.150;2022-11-18T00:50:19;8.50;118.99
7942;HTU21D;4016;50.758;7.150;2022-11-18T00:55:21;8.51;118.99
7942;HTU21D;4016;50.758;7.150;2022-11-18T01:00:21;8.49;118.99
7942;HTU21D;4016;50.758;7.150;2022-11-18T01:05:35;8.47;118.99
7942;HTU21D;4016;50.758;7.150;2022-11-18T01:10:39;8.46;118.99
7942;HTU21D;4016;50.758;7.150;2022-11-18T01:15:41;8.48;118.99
7942;HTU21D;4016;50.758;7.150;2022-11-18T01:20:42;8.50;118.99
7942;HTU21D;4016;50.758;7.150;2022-11-18T01:25:43;8.52;118.99
7942;HTU21D;4016;50.758;7.150;2022-11-18T01:30:44;8.44;118.99
7942;HTU21D;4016;50.758;7.150;2022-11-18T01:35:44;8.44;118.99
7942;HTU21D;4016;50.758;7.150;2022-11-18T01:40:45;8.46;118.99
7942;HTU21D;4016;50.758;7.150;2022-11-18T01:45:47;8.44;118.99
7942;HTU21D;4016;50.758;7.150;2022-11-18T01:50:53;8.43;118.99
7942;HTU21D;4016;50.758;7.150;2022-11-18T01:55:57;8.44;118.99
7942;HTU21D;4016;50.758;7.150;2022-11-18T02:00:59;8.44;118.99
7942;HTU21D;4016;50.758;7.150;2022-11-18T02:06:01;8.47;118.99
7942;HTU21D;4016;50.758;7.150;2022-11-18T02:11:03;8.49;118.99
7942;HTU21D;4016;50.758;7.150;2022-11-18T02:21:15;8.52;118.99
7942;HTU21D;4016;50.758;7.150;2022-11-18T02:26:34;8.57;118.99
7942;HTU21D;4016;50.758;7.150;2022-11-18T02:36:58;8.59;118.99
7942;HTU21D;4016;50.758;7.150;2022-11-18T02:42:03;8.59;118.99
7942;HTU21D;4016;50.758;7.150;2022-11-18T02:47:06;8.60;118.99
7942;HTU21D;4016;50.758;7.150;2022-11-18T02:52:09;8.67;118.99
7942;HTU21D;4016;50.758;7.150;2022-11-18T02:57:12;8.83;118.99
7942;HTU21D;4016;50.758;7.150;2022-11-18T03:02:17;8.67;118.99
7942;HTU21D;4016;50.758;7.150;2022-11-18T03:07:24;8.65;118.99
7942;HTU21D;4016;50.758;7.150;2022-11-18T03:23:35;8.71;118.99
7942;HTU21D;4016;50.758;7.150;2022-11-18T03:28:49;8.77;118.99
7942;HTU21D;4016;50.758;7.150;2022-11-18T03:34:00;8.78;118.99
7942;HTU21D;4016;50.758;7.150;2022-11-18T03:39:04;8.75;118.99
7942;HTU21D;4016;50.758;7.150;2022-11-18T03:44:10;8.79;118.99
7942;HTU21D;4016;50.758;7.150;2022-11-18T03:49:16;8.82;118.99
7942;HTU21D;4016;50.758;7.150;2022-11-18T03:54:21;8.79;118.99
7942;HTU21D;4016;50.758;7.150;2022-11-18T03:59:28;8.91;118.99
7942;HTU21D;4016;50.758;7.150;2022-11-18T04:04:31;8.94;118.99
7942;HTU21D;4016;50.758;7.150;2022-11-18T04:09:45;8.97;118.99
7942;HTU21D;4016;50.758;7.150;2022-11-18T04:14:47;8.98;118.99
7942;HTU21D;4016;50.758;7.150;2022-11-18T04:19:51;9.01;118.99
7942;HTU21D;4016;50.758;7.150;2022-11-18T04:24:51;9.08;118.99
7942;HTU21D;4016;50.758;7.150;2022-11-18T04:29:52;9.08;118.99
7942;HTU21D;4016;50.758;7.150;2022-11-18T04:34:52;9.08;118.99
7942;HTU21D;4016;50.758;7.150;2022-11-18T04:39:52;9.11;118.99
7942;HTU21D;4016;50.758;7.150;2022-11-18T04:44:53;9.11;118.99
7942;HTU21D;4016;50.758;7.150;2022-11-18T04:49:53;9.09;118.99
7942;HTU21D;4016;50.758;7.150;2022-11-18T04:54:53;9.08;118.99
7942;HTU21D;4016;50.758;7.150;2022-11-18T04:59:54;9.19;118.99
7942;HTU21D;4016;50.758;7.150;2022-11-18T05:04:54;9.05;118.99
7942;HTU21D;4016;50.758;7.150;2022-11-18T05:09:54;8.96;118.99
7942;HTU21D;4016;50.758;7.150;2022-11-18T05:14:55;8.88;118.99
7942;HTU21D;4016;50.758;7.150;2022-11-18T05:19:55;8.79;118.99
7942;HTU21D;4016;50.758;7.150;2022-11-18T05:24:56;8.78;118.99
7942;HTU21D;4016;50.758;7.150;2022-11-18T05:29:56;8.73;118.99
7942;HTU21D;4016;50.758;7.150;2022-11-18T05:34:56;8.78;118.99
7942;HTU21D;4016;50.758;7.150;2022-11-18T05:39:57;8.70;118.99
7942;HTU21D;4016;50.758;7.150;2022-11-18T05:44:57;8.67;118.99
7942;HTU21D;4016;50.758;7.150;2022-11-18T05:49:57;8.65;118.99
7942;HTU21D;4016;50.758;7.150;2022-11-18T05:54:58;8.66;118.99
7942;HTU21D;4016;50.758;7.150;2022-11-18T05:59:58;8.61;118.99
7942;HTU21D;4016;50.758;7.150;2022-11-18T06:05:02;8.60;118.99
7942;HTU21D;4016;50.758;7.150;2022-11-18T06:10:04;8.62;118.99
7942;HTU21D;4016;50.758;7.150;2022-11-18T06:20:20;8.60;118.99
7942;HTU21D;4016;50.758;7.150;2022-11-18T06:25:22;8.59;118.99
7942;HTU21D;4016;50.758;7.150;2022-11-18T06:30:22;8.58;118.99
7942;HTU21D;4016;50.758;7.150;2022-11-18T06:35:22;8.52;118.99
7942;HTU21D;4016;50.758;7.150;2022-11-18T06:40:23;8.48;118.99
7942;HTU21D;4016;50.758;7.150;2022-11-18T06:45:23;8.47;118.99
7942;HTU21D;4016;50.758;7.150;2022-11-18T06:50:23;8.46;118.99
7942;HTU21D;4016;50.758;7.150;2022-11-18T06:55:24;8.49;118.99
7942;HTU21D;4016;50.758;7.150;2022-11-18T07:00:24;8.49;118.99
7942;HTU21D;4016;50.758;7.150;2022-11-18T07:05:25;8.47;118.99
7942;HTU21D;4016;50.758;7.150;2022-11-18T07:10:25;8.45;118.99
7942;HTU21D;4016;50.758;7.150;2022-11-18T07:15:25;8.49;118.99
7942;HTU21D;4016;50.758;7.150;2022-11-18T07:20:26;8.53;118.99
7942;HTU21D;4016;50.758;7.150;2022-11-18T07:25:26;8.60;118.99
7942;HTU21D;4016;50.758;7.150;2022-11-18T07:30:26;8.64;118.99
7942;HTU21D;4016;50.758;7.150;2022-11-18T07:35:27;8.68;118.99
7942;HTU21D;4016;50.758;7.150;2022-11-18T07:40:27;8.75;118.99
7942;HTU21D;4016;50.758;7.150;2022-11-18T07:45:27;8.88;118.99
7942;HTU21D;4016;50.758;7.150;2022-11-18T07:50:28;8.89;118.99
7942;HTU21D;4016;50.758;7.150;2022-11-18T07:55:28;9.05;118.99
7942;HTU21D;4016;50.758;7.150;2022-11-18T08:00:28;9.12;118.99
7942;HTU21D;4016;50.758;7.150;2022-11-18T08:05:29;9.18;118.99
7942;HTU21D;4016;50.758;7.150;2022-11-18T08:10:29;9.29;118.99
7942;HTU21D;4016;50.758;7.150;2022-11-18T08:15:30;9.44;118.99
7942;HTU21D;4016;50.758;7.150;2022-11-18T08:20:30;9.54;118.99
7942;HTU21D;4016;50.758;7.150;2022-11-18T08:25:32;9.63;118.99
7942;HTU21D;4016;50.758;7.150;2022-11-18T08:30:33;9.72;118.99
7942;HTU21D;4016;50.758;7.150;2022-11-18T08:35:34;9.79;118.99
7942;HTU21D;4016;50.758;7.150;2022-11-18T08:40:34;9.85;118.99
7942;HTU21D;4016;50.758;7.150;2022-11-18T08:45:37;9.98;118.99
7942;HTU21D;4016;50.758;7.150;2022-11-18T08:50:37;10.08;118.99
7942;HTU21D;4016;50.758;7.150;2022-11-18T08:55:38;10.15;118.99
7942;HTU21D;4016;50.758;7.150;2022-11-18T09:00:38;10.28;118.99
7942;HTU21D;4016;50.758;7.150;2022-11-18T09:05:38;10.42;118.99
7942;HTU21D;4016;50.758;7.150;2022-11-18T09:10:39;10.53;118.99
7942;HTU21D;4016;50.758;7.150;2022-11-18T09:15:39;10.67;118.99
7942;HTU21D;4016;50.758;7.150;2022-11-18T09:20:39;10.71;118.99
7942;HTU21D;4016;50.758;7.150;2022-11-18T09:25:40;10.81;118.99
7942;HTU21D;4016;50.758;7.150;2022-11-18T09:30:40;10.89;118.99
7942;HTU21D;4016;50.758;7.150;2022-11-18T09:35:41;10.99;118.99
7942;HTU21D;4016;50.758;7.150;2022-11-18T09:51:26;11.11;118.99
7942;HTU21D;4016;50.758;7.150;2022-11-18T09:56:27;11.20;118.99
7942;HTU21D;4016;50.758;7.150;2022-11-18T10:01:28;11.29;118.99
7942;HTU21D;4016;50.758;7.150;2022-11-18T10:06:31;11.31;118.99
7942;HTU21D;4016;50.758;7.150;2022-11-18T10:11:41;11.27;118.99
7942;HTU21D;4016;50.758;7.150;2022-11-18T10:17:06;11.29;118.99
7942;HTU21D;4016;50.758;7.150;2022-11-18T10:22:21;11.36;118.99
7942;HTU21D;4016;50.758;7.150;2022-11-18T10:27:37;11.52;118.99
7942;HTU21D;4016;50.758;7.150;2022-11-18T10:32:58;11.70;118.99
7942;HTU21D;4016;50.758;7.150;2022-11-18T10:54:14;12.55;111.75
7942;HTU21D;4016;50.758;7.150;2022-11-18T10:59:40;12.27;110.36
7942;HTU21D;4016;50.758;7.150;2022-11-18T11:04:42;12.33;105.66
7942;HTU21D;4016;50.758;7.150;2022-11-18T11:09:43;12.28;108.76
7942;HTU21D;4016;50.758;7.150;2022-11-18T11:14:52;12.51;107.88
7942;HTU21D;4016;50.758;7.150;2022-11-18T11:25:22;12.86;102.49
7942;HTU21D;4016;50.758;7.150;2022-11-18T11:30:25;12.72;107.95
7942;HTU21D;4016;50.758;7.150;2022-11-18T11:35:30;13.02;103.00
7942;HTU21D;4016;50.758;7.150;2022-11-18T11:46:37;13.40;96.59
7942;HTU21D;4016;50.758;7.150;2022-11-18T12:02:11;13.60;94.73
7942;HTU21D;4016;50.758;7.150;2022-11-18T12:07:17;13.37;94.72
7942;HTU21D;4016;50.758;7.150;2022-11-18T12:12:24;13.23;95.68
7942;HTU21D;4016;50.758;7.150;2022-11-18T12:17:55;13.46;94.57
7942;HTU21D;4016;50.758;7.150;2022-11-18T12:23:16;13.41;95.15
7942;HTU21D;4016;50.758;7.150;2022-11-18T12:33:41;13.70;93.60
7942;HTU21D;4016;50.758;7.150;2022-11-18T12:38:43;13.70;93.62
7942;HTU21D;4016;50.758;7.150;2022-11-18T12:48:47;13.55;95.95
7942;HTU21D;4016;50.758;7.150;2022-11-18T12:53:48;13.51;96.78
7942;HTU21D;4016;50.758;7.150;2022-11-18T12:58:50;13.78;94.01
7942;HTU21D;4016;50.758;7.150;2022-11-18T13:03:51;14.21;95.27
7942;HTU21D;4016;50.758;7.150;2022-11-18T13:08:58;14.66;87.31
7942;HTU21D;4016;50.758;7.150;2022-11-18T13:13:59;14.87;84.46
7942;HTU21D;4016;50.758;7.150;2022-11-18T13:19:23;14.99;86.93
7942;HTU21D;4016;50.758;7.150;2022-11-18T13:24:23;14.83;86.51
7942;HTU21D;4016;50.758;7.150;2022-11-18T13:30:05;14.64;86.28
7942;HTU21D;4016;50.758;7.150;2022-11-18T13:35:17;14.54;88.11
7942;HTU21D;4016;50.758;7.150;2022-11-18T13:40:30;14.55;86.86
7942;HTU21D;4016;50.758;7.150;2022-11-18T13:45:37;14.75;85.48
7942;HTU21D;4016;50.758;7.150;2022-11-18T13:50:41;15.08;84.10
7942;HTU21D;4016;50.758;7.150;2022-11-18T13:55:46;14.86;80.64
7942;HTU21D;4016;50.758;7.150;2022-11-18T14:00:57;14.82;86.12
7942;HTU21D;4016;50.758;7.150;2022-11-18T14:05:59;14.80;83.97
7942;HTU21D;4016;50.758;7.150;2022-11-18T14:11:02;14.62;84.23
7942;HTU21D;4016;50.758;7.150;2022-11-18T14:21:31;14.12;89.63
7942;HTU21D;4016;50.758;7.150;2022-11-18T14:26:37;13.93;93.65
7942;HTU21D;4016;50.758;7.150;2022-11-18T14:31:37;13.82;96.48
7942;HTU21D;4016;50.758;7.150;2022-11-18T14:36:38;13.75;97.45
7942;HTU21D;4016;50.758;7.150;2022-11-18T14:41:38;13.49;99.48
7942;HTU21D;4016;50.758;7.150;2022-11-18T14:46:57;13.45;100.99
7942;HTU21D;4016;50.758;7.150;2022-11-18T14:51:59;13.22;101.64
7942;HTU21D;4016;50.758;7.150;2022-11-18T14:57:03;13.15;101.38
7942;HTU21D;4016;50.758;7.150;2022-11-18T15:02:04;13.10;103.60
7942;HTU21D;4016;50.758;7.150;2022-11-18T15:07:04;13.00;105.18
7942;HTU21D;4016;50.758;7.150;2022-11-18T15:12:05;12.85;105.82
7942;HTU21D;4016;50.758;7.150;2022-11-18T15:17:05;12.75;107.30
7942;HTU21D;4016;50.758;7.150;2022-11-18T15:22:05;12.61;108.37
7942;HTU21D;4016;50.758;7.150;2022-11-18T15:27:08;12.48;109.59
7942;HTU21D;4016;50.758;7.150;2022-11-18T15:32:08;12.35;111.08
7942;HTU21D;4016;50.758;7.150;2022-11-18T15:37:12;12.21;112.41
7942;HTU21D;4016;50.758;7.150;2022-11-18T15:42:12;12.11;113.19
7942;HTU21D;4016;50.758;7.150;2022-11-18T15:47:13;12.02;114.54
7942;HTU21D;4016;50.758;7.150;2022-11-18T15:52:13;11.96;114.31
7942;HTU21D;4016;50.758;7.150;2022-11-18T15:57:13;11.90;114.29
7942;HTU21D;4016;50.758;7.150;2022-11-18T16:02:14;11.83;114.93
7942;HTU21D;4016;50.758;7.150;2022-11-18T16:07:14;11.79;115.06
7942;HTU21D;4016;50.758;7.150;2022-11-18T16:12:15;11.58;115.71
7942;HTU21D;4016;50.758;7.150;2022-11-18T16:17:34;11.44;117.05
7942;HTU21D;4016;50.758;7.150;2022-11-18T16:22:34;11.38;117.67
7942;HTU21D;4016;50.758;7.150;2022-11-18T16:27:35;11.27;117.32
7942;HTU21D;4016;50.758;7.150;2022-11-18T16:32:35;11.20;118.69
7942;HTU21D;4016;50.758;7.150;2022-11-18T16:37:36;11.08;118.99
7942;HTU21D;4016;50.758;7.150;2022-11-18T16:42:36;10.98;118.99
7942;HTU21D;4016;50.758;7.150;2022-11-18T16:47:37;10.89;118.99
7942;HTU21D;4016;50.758;7.150;2022-11-18T16:52:37;10.85;118.99
7942;HTU21D;4016;50.758;7.150;2022-11-18T16:57:38;10.93;118.99
7942;HTU21D;4016;50.758;7.150;2022-11-18T17:02:38;10.85;118.99
7942;HTU21D;4016;50.758;7.150;2022-11-18T17:07:38;10.87;118.99
7942;HTU21D;4016;50.758;7.150;2022-11-18T17:12:39;10.77;118.99
7942;HTU21D;4016;50.758;7.150;2022-11-18T17:17:39;10.67;118.99
7942;HTU21D;4016;50.758;7.150;2022-11-18T17:22:40;10.59;118.99
7942;HTU21D;4016;50.758;7.150;2022-11-18T17:27:40;10.60;118.99
7942;HTU21D;4016;50.758;7.150;2022-11-18T17:32:40;10.59;118.99
7942;HTU21D;4016;50.758;7.150;2022-11-18T17:37:41;10.67;118.99
7942;HTU21D;4016;50.758;7.150;2022-11-18T17:42:42;10.52;118.99
7942;HTU21D;4016;50.758;7.150;2022-11-18T17:47:42;10.40;118.99
7942;HTU21D;4016;50.758;7.150;2022-11-18T17:52:42;10.37;118.99
7942;HTU21D;4016;50.758;7.150;2022-11-18T17:57:43;10.34;118.99
7942;HTU21D;4016;50.758;7.150;2022-11-18T18:02:43;10.30;118.99
7942;HTU21D;4016;50.758;7.150;2022-11-18T18:07:43;10.30;118.99
7942;HTU21D;4016;50.758;7.150;2022-11-18T18:12:44;10.30;118.99
7942;HTU21D;4016;50.758;7.150;2022-11-18T18:18:03;10.14;118.99
7942;HTU21D;4016;50.758;7.150;2022-11-18T18:23:04;10.04;118.99
7942;HTU21D;4016;50.758;7.150;2022-11-18T18:28:04;9.94;118.99
7942;HTU21D;4016;50.758;7.150;2022-11-18T18:33:05;9.89;118.99
7942;HTU21D;4016;50.758;7.150;2022-11-18T18:38:06;9.83;118.99
7942;HTU21D;4016;50.758;7.150;2022-11-18T18:43:06;9.81;118.99
7942;HTU21D;4016;50.758;7.150;2022-11-18T18:48:06;9.86;118.99
7942;HTU21D;4016;50.758;7.150;2022-11-18T18:53:07;9.80;118.99
7942;HTU21D;4016;50.758;7.150;2022-11-18T18:58:07;9.78;118.99
7942;HTU21D;4016;50.758;7.150;2022-11-18T19:03:08;9.74;118.99
7942;HTU21D;4016;50.758;7.150;2022-11-18T19:08:08;9.74;118.99
7942;HTU21D;4016;50.758;7.150;2022-11-18T19:13:09;9.71;118.99
7942;HTU21D;4016;50.758;7.150;2022-11-18T19:18:09;9.72;118.99
7942;HTU21D;4016;50.758;7.150;2022-11-18T19:23:09;9.68;118.99
7942;HTU21D;4016;50.758;7.150;2022-11-18T19:28:10;9.65;118.99
7942;HTU21D;4016;50.758;7.150;2022-11-18T19:33:10;9.59;118.99
7942;HTU21D;4016;50.758;7.150;2022-11-18T19:38:12;9.59;118.99
7942;HTU21D;4016;50.758;7.150;2022-11-18T19:43:12;9.55;118.99
7942;HTU21D;4016;50.758;7.150;2022-11-18T19:48:12;9.53;118.99
7942;HTU21D;4016;50.758;7.150;2022-11-18T19:53:13;9.51;118.99
7942;HTU21D;4016;50.758;7.150;2022-11-18T19:58:33;9.47;118.99
7942;HTU21D;4016;50.758;7.150;2022-11-18T20:03:33;9.52;118.99
7942;HTU21D;4016;50.758;7.150;2022-11-18T20:08:34;9.47;118.99
7942;HTU21D;4016;50.758;7.150;2022-11-18T20:13:36;9.46;118.99
7942;HTU21D;4016;50.758;7.150;2022-11-18T20:18:37;9.42;118.99
7942;HTU21D;4016;50.758;7.150;2022-11-18T20:23:37;9.44;118.99
7942;HTU21D;4016;50.758;7.150;2022-11-18T20:28:40;9.45;118.99
7942;HTU21D;4016;50.758;7.150;2022-11-18T20:33:42;9.42;118.99
7942;HTU21D;4016;50.758;7.150;2022-11-18T20:38:47;9.39;118.99
7942;HTU21D;4016;50.758;7.150;2022-11-18T20:43:48;9.33;118.99
7942;HTU21D;4016;50.758;7.150;2022-11-18T20:48:49;9.32;118.99
7942;HTU21D;4016;50.758;7.150;2022-11-18T20:53:51;9.26;118.99
7942;HTU21D;4016;50.758;7.150;2022-11-18T20:58:51;9.25;118.99
7942;HTU21D;4016;50.758;7.150;2022-11-18T21:04:01;9.23;118.99
7942;HTU21D;4016;50.758;7.150;2022-11-18T21:09:04;9.23;118.99
7942;HTU21D;4016;50.758;7.150;2022-11-18T21:14:05;9.22;118.99
7942;HTU21D;4016;50.758;7.150;2022-11-18T21:19:18;9.19;118.99
7942;HTU21D;4016;50.758;7.150;2022-11-18T21:24:22;9.19;118.99
7942;HTU21D;4016;50.758;7.150;2022-11-18T21:29:26;9.18;118.99
7942;HTU21D;4016;50.758;7.150;2022-11-18T21:34:26;9.16;118.99
7942;HTU21D;4016;50.758;7.150;2022-11-18T21:39:27;9.12;118.99
7942;HTU21D;4016;50.758;7.150;2022-11-18T21:44:27;9.08;118.99
7942;HTU21D;4016;50.758;7.150;2022-11-18T21:49:28;9.07;118.99
7942;HTU21D;4016;50.758;7.150;2022-11-18T21:54:29;9.10;118.99
7942;HTU21D;4016;50.758;7.150;2022-11-18T21:59:30;9.15;118.99
7942;HTU21D;4016;50.758;7.150;2022-11-18T22:04:31;9.15;118.99
7942;HTU21D;4016;50.758;7.150;2022-11-18T22:09:50;9.08;118.99
7942;HTU21D;4016;50.758;7.150;2022-11-18T22:14:50;9.08;118.99
7942;HTU21D;4016;50.758;7.150;2022-11-18T22:19:51;9.07;118.99
7942;HTU21D;4016;50.758;7.150;2022-11-18T22:24:51;9.05;118.99
7942;HTU21D;4016;50.758;7.150;2022-11-18T22:29:52;9.04;118.99
7942;HTU21D;4016;50.758;7.150;2022-11-18T22:34:52;9.07;118.99
7942;HTU21D;4016;50.758;7.150;2022-11-18T22:39:52;9.09;118.99
7942;HTU21D;4016;50.758;7.150;2022-11-18T22:44:53;9.10;118.99
7942;HTU21D;4016;50.758;7.150;2022-11-18T22:49:53;9.10;118.99
7942;HTU21D;4016;50.758;7.150;2022-11-18T22:54:53;9.10;118.99
7942;HTU21D;4016;50.758;7.150;2022-11-18T22:59:54;9.07;118.99
7942;HTU21D;4016;50.758;7.150;2022-11-18T23:04:54;9.10;118.99
7942;HTU21D;4016;50.758;7.150;2022-11-18T23:09:54;9.11;118.99
7942;HTU21D;4016;50.758;7.150;2022-11-18T23:14:55;9.08;118.99
7942;HTU21D;4016;50.758;7.150;2022-11-18T23:19:55;9.06;118.99
7942;HTU21D;4016;50.758;7.150;2022-11-18T23:24:55;9.07;118.99
7942;HTU21D;4016;50.758;7.150;2022-11-18T23:29:56;9.04;118.99
7942;HTU21D;4016;50.758;7.150;2022-11-18T23:34:56;9.04;118.99
7942;HTU21D;4016;50.758;7.150;2022-11-18T23:39:56;9.01;118.99
7942;HTU21D;4016;50.758;7.150;2022-11-18T23:44:57;9.00;118.99
7942;HTU21D;4016;50.758;7.150;2022-11-18T23:49:57;9.06;118.99
7942;HTU21D;4016;50.758;7.150;2022-11-18T23:54:58;9.01;118.99
